Terminal Aerodrome Forecast
Issued by NWS Topeka, KS

Home | Current Version | Previous Version | Graphics & Text | Print | Product List | Glossary On
Versions: 1 2 3 4 5 6 7 8 9 10 11 12 13 14 15 16 17 18 19 20
000
FTUS43 KTOP 142320
TAFTOP
TAF
KTOP 142320Z 1500/1524 20008KT P6SM BKN060
     FM150400 30007KT 3SM -SN OVC015
     FM150900 33011G20KT P6SM SCT030
     FM151600 33015G25KT P6SM BKN030=

USA.gov is the U.S. government's official web portal to all federal, state and local government web resources and services.